createdAt,value
2019-04-16T00:00:16.976Z,315.00
2019-04-16T00:02:18.789Z,315.00
2019-04-16T00:04:17.101Z,315.00
2019-04-16T00:06:16.930Z,315.00
2019-04-16T00:08:27.231Z,315.00
2019-04-16T00:10:16.831Z,315.00
2019-04-16T00:12:17.047Z,315.00
2019-04-16T00:14:17.069Z,315.00
2019-04-16T00:16:16.870Z,315.00
2019-04-16T00:18:18.695Z,315.00
2019-04-16T00:20:17.292Z,315.00
2019-04-16T00:22:16.797Z,315.00
2019-04-16T00:24:18.563Z,315.00
2019-04-16T00:26:17.064Z,315.00
2019-04-16T00:28:16.976Z,315.00
2019-04-16T00:30:16.970Z,315.00
2019-04-16T00:32:17.216Z,315.00
2019-04-16T00:34:17.002Z,315.00
2019-04-16T00:36:18.125Z,315.00
2019-04-16T00:38:17.046Z,315.00
2019-04-16T00:40:17.314Z,315.00
2019-04-16T00:42:17.123Z,315.00
2019-04-16T00:44:16.931Z,315.00
2019-04-16T00:46:17.151Z,315.00
2019-04-16T00:48:16.947Z,315.00
2019-04-16T00:50:16.965Z,315.00
2019-04-16T00:52:16.970Z,315.00
2019-04-16T00:54:16.787Z,315.00
2019-04-16T00:56:17.201Z,315.00
2019-04-16T00:58:19.550Z,315.00
2019-04-16T01:00:16.914Z,315.00
2019-04-16T01:02:17.136Z,315.00
2019-04-16T01:04:17.154Z,315.00
2019-04-16T01:06:18.041Z,315.00
2019-04-16T01:08:17.116Z,315.00
2019-04-16T01:10:16.752Z,315.00
2019-04-16T01:12:16.991Z,315.00
2019-04-16T01:14:17.004Z,315.00
2019-04-16T01:16:16.778Z,315.00
2019-04-16T01:18:16.948Z,315.00
2019-04-16T01:20:16.838Z,315.00
2019-04-16T01:22:17.005Z,315.00
2019-04-16T01:24:17.549Z,315.00
2019-04-16T01:26:16.872Z,315.00
2019-04-16T01:28:17.024Z,315.00
2019-04-16T01:30:17.092Z,315.00
2019-04-16T01:32:16.915Z,315.00
2019-04-16T01:34:18.083Z,315.00
2019-04-16T01:36:17.137Z,315.00
2019-04-16T01:38:17.109Z,315.00
2019-04-16T01:40:18.604Z,315.00
2019-04-16T01:42:17.574Z,315.00
2019-04-16T01:44:17.183Z,315.00
2019-04-16T01:46:16.921Z,315.00
2019-04-16T01:48:17.034Z,315.00
2019-04-16T01:50:17.209Z,315.00
2019-04-16T01:52:19.048Z,315.00
2019-04-16T01:54:17.231Z,315.00
2019-04-16T01:56:16.963Z,315.00
2019-04-16T01:58:17.102Z,315.00
2019-04-16T02:00:17.371Z,315.00
2019-04-16T02:02:16.973Z,315.00
2019-04-16T02:04:19.613Z,315.00
2019-04-16T02:06:17.202Z,315.00
2019-04-16T02:08:17.214Z,315.00
2019-04-16T02:10:17.229Z,315.00
2019-04-16T02:12:16.803Z,315.00
2019-04-16T02:14:17.973Z,315.00
2019-04-16T02:16:16.996Z,315.00
2019-04-16T02:18:16.994Z,315.00
2019-04-16T02:20:17.287Z,315.00
2019-04-16T02:22:17.096Z,315.00
2019-04-16T02:24:18.757Z,315.00
2019-04-16T02:26:17.060Z,315.00
2019-04-16T02:28:17.127Z,315.00
2019-04-16T02:30:16.883Z,315.00
2019-04-16T02:32:17.262Z,315.00
2019-04-16T02:34:17.160Z,315.00
2019-04-16T02:36:16.929Z,315.00
2019-04-16T02:38:16.987Z,315.00
2019-04-16T02:40:18.606Z,315.00
2019-04-16T02:42:16.965Z,315.00
2019-04-16T02:44:17.231Z,315.00
2019-04-16T02:46:16.984Z,315.00
2019-04-16T02:48:17.431Z,315.00
2019-04-16T02:50:17.055Z,315.00
2019-04-16T02:52:17.495Z,315.00
2019-04-16T02:54:17.167Z,315.00
2019-04-16T02:56:19.017Z,315.00
2019-04-16T02:58:16.909Z,315.00
2019-04-16T03:00:18.427Z,313.33
2019-04-16T03:02:17.234Z,315.00
2019-04-16T03:04:17.232Z,315.00
2019-04-16T03:06:17.258Z,315.00
2019-04-16T03:08:17.259Z,315.00
2019-04-16T03:10:17.273Z,315.00
2019-04-16T03:12:20.755Z,315.00
2019-04-16T03:14:17.293Z,315.00
2019-04-16T03:16:17.104Z,315.00
2019-04-16T03:18:17.424Z,315.00
2019-04-16T03:20:17.228Z,315.00
2019-04-16T03:22:17.031Z,315.00
2019-04-16T03:24:17.455Z,315.00
2019-04-16T03:26:18.161Z,315.00
2019-04-16T03:28:16.967Z,315.00
2019-04-16T03:30:17.158Z,315.00
2019-04-16T03:32:17.296Z,315.00
2019-04-16T03:34:19.070Z,315.00
2019-04-16T03:36:17.154Z,315.00
2019-04-16T03:38:17.232Z,315.00
2019-04-16T03:40:18.621Z,315.00
2019-04-16T03:42:17.254Z,315.00
2019-04-16T03:44:17.265Z,315.00
2019-04-16T03:46:17.284Z,315.00
2019-04-16T03:48:17.590Z,315.00
2019-04-16T03:50:17.320Z,315.00
2019-04-16T03:52:17.309Z,315.00
2019-04-16T03:54:18.837Z,315.00
2019-04-16T03:56:17.111Z,315.00
2019-04-16T03:58:17.142Z,316.25
2019-04-16T04:00:16.940Z,135.00
2019-04-16T04:02:21.952Z,135.00
2019-04-16T04:04:16.972Z,135.00
2019-04-16T04:06:17.397Z,135.00
2019-04-16T04:08:17.972Z,135.00
2019-04-16T04:10:29.746Z,135.00
2019-04-16T04:12:17.285Z,135.00
2019-04-16T04:14:22.153Z,135.00
2019-04-16T04:16:17.251Z,135.00
2019-04-16T04:18:17.294Z,135.00
2019-04-16T04:20:18.132Z,135.00
2019-04-16T04:22:17.204Z,135.00
2019-04-16T04:24:17.093Z,135.00
2019-04-16T04:26:17.201Z,315.00
2019-04-16T04:28:19.959Z,315.00
2019-04-16T04:30:17.229Z,315.00
2019-04-16T04:32:17.314Z,315.40
2019-04-16T04:34:17.783Z,135.00
2019-04-16T04:36:19.562Z,135.00
2019-04-16T04:38:17.172Z,135.00
2019-04-16T04:40:17.519Z,135.00
2019-04-16T04:42:19.173Z,135.00
2019-04-16T04:44:17.211Z,135.00
2019-04-16T04:46:17.157Z,135.00
2019-04-16T04:48:17.023Z,135.00
2019-04-16T04:50:17.448Z,135.00
2019-04-16T04:52:17.130Z,135.00
2019-04-16T04:54:21.597Z,135.00
2019-04-16T04:56:19.324Z,135.00
2019-04-16T04:58:17.398Z,135.00
2019-04-16T05:00:16.940Z,135.00
2019-04-16T05:02:17.425Z,135.00
2019-04-16T05:04:20.392Z,135.00
2019-04-16T05:06:17.230Z,135.00
2019-04-16T05:08:17.353Z,135.00
2019-04-16T05:10:17.511Z,135.00
2019-04-16T05:12:17.860Z,135.00
2019-04-16T05:14:17.010Z,135.00
2019-04-16T05:16:17.194Z,135.00
2019-04-16T05:18:17.281Z,135.00
2019-04-16T05:20:17.113Z,135.00
2019-04-16T05:22:20.630Z,135.00
2019-04-16T05:24:17.089Z,135.00
2019-04-16T05:26:17.344Z,135.00
2019-04-16T05:28:17.261Z,135.00
2019-04-16T05:30:20.226Z,135.00
2019-04-16T05:32:17.571Z,135.00
2019-04-16T05:34:18.329Z,135.00
2019-04-16T05:36:20.662Z,135.00
2019-04-16T05:38:17.320Z,135.00
2019-04-16T05:40:17.441Z,135.00
2019-04-16T05:42:17.312Z,135.00
2019-04-16T05:44:17.352Z,135.00
2019-04-16T05:46:17.151Z,135.00
2019-04-16T05:48:18.535Z,135.00
2019-04-16T05:50:17.387Z,135.00
2019-04-16T05:52:17.412Z,135.00
2019-04-16T05:54:17.188Z,135.00
2019-04-16T05:56:17.220Z,135.00
2019-04-16T05:58:17.432Z,135.00
2019-04-16T06:00:17.443Z,135.00
2019-04-16T06:02:18.822Z,135.00
2019-04-16T06:04:17.470Z,135.00
2019-04-16T06:06:17.543Z,135.00
2019-04-16T06:08:17.090Z,135.00
2019-04-16T06:10:18.991Z,135.00
2019-04-16T06:12:17.414Z,135.00
2019-04-16T06:14:18.960Z,135.00
2019-04-16T06:16:17.341Z,135.00
2019-04-16T06:18:18.214Z,93.08
2019-04-16T06:20:20.509Z,85.73
2019-04-16T06:22:17.266Z,45.00
2019-04-16T06:24:17.291Z,73.39
2019-04-16T06:26:17.622Z,68.85
2019-04-16T06:28:17.458Z,100.47
2019-04-16T06:30:17.315Z,149.78
2019-04-16T06:32:17.327Z,180.00
2019-04-16T06:34:17.344Z,180.53
2019-04-16T06:36:17.447Z,0.00
2019-04-16T06:38:17.532Z,6.13
2019-04-16T06:40:17.422Z,108.54
2019-04-16T06:42:21.011Z,90.00
2019-04-16T06:44:17.394Z,53.73
2019-04-16T06:46:17.204Z,106.47
2019-04-16T06:48:17.523Z,193.59
2019-04-16T06:50:30.279Z,150.11
2019-04-16T06:52:18.070Z,101.56
2019-04-16T06:54:17.455Z,213.70
2019-04-16T06:56:19.923Z,196.33
2019-04-16T06:58:18.271Z,119.92
2019-04-16T07:00:17.409Z,246.46
2019-04-16T07:02:17.510Z,132.64
2019-04-16T07:04:17.290Z,67.05
2019-04-16T07:06:17.315Z,62.53
2019-04-16T07:08:18.510Z,202.71
2019-04-16T07:10:17.753Z,81.97
2019-04-16T07:12:17.503Z,57.22
2019-04-16T07:14:17.609Z,84.11
2019-04-16T07:16:17.421Z,79.78
2019-04-16T07:18:20.501Z,93.79
2019-04-16T07:20:17.462Z,140.94
2019-04-16T07:22:21.149Z,109.57
2019-04-16T07:24:17.582Z,85.78
2019-04-16T07:26:17.458Z,89.94
2019-04-16T07:28:17.250Z,258.02
2019-04-16T07:30:20.860Z,98.51
2019-04-16T07:32:17.230Z,122.58
2019-04-16T07:34:17.213Z,111.72
2019-04-16T07:36:17.491Z,108.00
2019-04-16T07:38:17.333Z,106.39
2019-04-16T07:40:17.416Z,158.55
2019-04-16T07:42:21.455Z,70.14
2019-04-16T07:44:17.443Z,117.09
2019-04-16T07:46:17.315Z,257.59
2019-04-16T07:48:17.462Z,126.44
2019-04-16T07:50:17.403Z,126.65
2019-04-16T07:52:17.370Z,90.36
2019-04-16T07:54:18.861Z,160.21
2019-04-16T07:56:17.503Z,145.22
2019-04-16T07:58:17.517Z,119.80
2019-04-16T08:00:17.445Z,156.99
2019-04-16T08:02:21.286Z,119.50
2019-04-16T08:04:28.333Z,99.38
2019-04-16T08:06:17.575Z,102.54
2019-04-16T08:08:17.371Z,80.76
2019-04-16T08:10:17.360Z,102.99
2019-04-16T08:12:29.936Z,70.33
2019-04-16T08:14:17.242Z,114.50
2019-04-16T08:16:17.313Z,127.15
2019-04-16T08:18:17.533Z,115.92
2019-04-16T08:20:19.809Z,109.76
2019-04-16T08:22:17.472Z,157.92
2019-04-16T08:24:17.542Z,102.75
2019-04-16T08:26:17.513Z,112.97
2019-04-16T08:28:17.706Z,328.76
2019-04-16T08:30:17.812Z,165.43
2019-04-16T08:32:17.406Z,110.15
2019-04-16T08:34:17.624Z,135.14
2019-04-16T08:36:17.706Z,97.82
2019-04-16T08:38:17.338Z,98.15
2019-04-16T08:40:17.751Z,108.07
2019-04-16T08:42:17.570Z,107.79
2019-04-16T08:44:17.784Z,83.62
2019-04-16T08:46:17.923Z,105.58
2019-04-16T08:48:18.848Z,110.69
2019-04-16T08:50:17.536Z,89.77
2019-04-16T08:52:17.528Z,105.00
2019-04-16T08:54:18.797Z,116.18
2019-04-16T08:56:17.764Z,102.72
2019-04-16T08:58:17.566Z,121.71
2019-04-16T09:00:17.580Z,126.80
2019-04-16T09:02:17.525Z,119.16
2019-04-16T09:04:17.325Z,109.53
2019-04-16T09:06:17.703Z,105.17
2019-04-16T09:08:21.811Z,114.33
2019-04-16T09:10:20.254Z,120.93
2019-04-16T09:12:17.686Z,284.83
2019-04-16T09:14:20.808Z,299.24
2019-04-16T09:16:17.767Z,271.02
2019-04-16T09:18:17.578Z,3.02
2019-04-16T09:20:17.723Z,100.82
2019-04-16T09:22:17.806Z,122.29
2019-04-16T09:24:17.716Z,120.51
2019-04-16T09:26:22.576Z,120.84
2019-04-16T09:28:25.717Z,338.88
2019-04-16T09:30:17.956Z,213.45
2019-04-16T09:32:17.562Z,117.43
2019-04-16T09:34:18.710Z,107.36
2019-04-16T09:36:17.334Z,89.61
2019-04-16T09:38:17.522Z,99.91
2019-04-16T09:40:18.497Z,128.30
2019-04-16T09:42:17.373Z,191.79
2019-04-16T09:44:17.421Z,145.02
2019-04-16T09:46:25.559Z,109.39
2019-04-16T09:48:17.448Z,173.78
2019-04-16T09:50:17.659Z,114.35
2019-04-16T09:52:19.731Z,108.01
2019-04-16T09:54:17.681Z,105.26
2019-04-16T09:56:19.686Z,105.57
2019-04-16T09:58:17.606Z,102.31
2019-04-16T10:00:20.422Z,115.89
2019-04-16T10:02:17.628Z,106.42
2019-04-16T10:04:17.694Z,97.13
2019-04-16T10:06:17.592Z,142.66
2019-04-16T10:08:17.405Z,114.85
2019-04-16T10:10:17.586Z,108.59
2019-04-16T10:12:17.606Z,103.01
2019-04-16T10:14:17.706Z,126.10
2019-04-16T10:16:17.608Z,128.15
2019-04-16T10:18:18.965Z,127.54
2019-04-16T10:20:17.749Z,198.64
2019-04-16T10:22:18.093Z,258.92
2019-04-16T10:24:17.545Z,221.92
2019-04-16T10:26:17.500Z,104.29
2019-04-16T10:28:17.391Z,132.79
2019-04-16T10:30:19.516Z,86.74
2019-04-16T10:32:18.389Z,103.25
2019-04-16T10:34:17.718Z,356.07
2019-04-16T10:36:17.672Z,126.77
2019-04-16T10:38:17.566Z,106.85
2019-04-16T10:40:17.862Z,90.31
2019-04-16T10:42:17.770Z,110.44
2019-04-16T10:44:17.697Z,67.16
2019-04-16T10:46:17.823Z,355.31
2019-04-16T10:48:17.796Z,144.92
2019-04-16T10:50:17.821Z,102.51
2019-04-16T10:52:17.824Z,109.83
2019-04-16T10:54:17.835Z,100.38
2019-04-16T10:56:20.722Z,151.88
2019-04-16T10:58:17.859Z,123.06
2019-04-16T11:00:17.654Z,112.60
2019-04-16T11:02:18.798Z,121.38
2019-04-16T11:04:19.142Z,124.37
2019-04-16T11:06:17.902Z,165.92
2019-04-16T11:08:17.662Z,227.29
2019-04-16T11:10:17.822Z,91.44
2019-04-16T11:12:19.770Z,124.88
2019-04-16T11:14:17.849Z,133.31
2019-04-16T11:16:17.690Z,88.69
2019-04-16T11:18:17.712Z,95.44
2019-04-16T11:20:20.321Z,98.78
2019-04-16T11:22:17.926Z,111.69
2019-04-16T11:24:20.484Z,104.73
2019-04-16T11:26:17.683Z,124.74
2019-04-16T11:28:17.682Z,141.11
2019-04-16T11:30:17.747Z,127.38
2019-04-16T11:32:17.871Z,115.89
2019-04-16T11:34:17.869Z,145.36
2019-04-16T11:36:20.293Z,119.36
2019-04-16T11:38:17.902Z,137.27
2019-04-16T11:40:17.770Z,39.50
2019-04-16T11:42:17.830Z,238.65
2019-04-16T11:44:17.926Z,144.46
2019-04-16T11:46:17.932Z,122.51
2019-04-16T11:48:17.884Z,218.44
2019-04-16T11:50:18.135Z,123.07
2019-04-16T11:52:18.135Z,106.31
2019-04-16T11:54:17.895Z,168.33
2019-04-16T11:56:17.795Z,97.90
2019-04-16T11:58:18.013Z,210.09
2019-04-16T12:00:17.738Z,120.20
2019-04-16T12:02:20.413Z,107.34
2019-04-16T12:04:17.622Z,147.13
2019-04-16T12:06:27.833Z,181.79
2019-04-16T12:08:17.857Z,112.98
2019-04-16T12:10:17.634Z,115.70
2019-04-16T12:12:18.130Z,105.03
2019-04-16T12:14:29.160Z,113.49
2019-04-16T12:16:21.226Z,95.73
2019-04-16T12:18:17.875Z,143.25
2019-04-16T12:20:17.972Z,100.35
2019-04-16T12:22:17.749Z,118.42
2019-04-16T12:24:18.632Z,108.27
2019-04-16T12:26:17.970Z,136.74
2019-04-16T12:28:18.030Z,148.03
2019-04-16T12:30:17.788Z,100.24
2019-04-16T12:32:17.972Z,294.63
2019-04-16T12:34:17.773Z,116.67
2019-04-16T12:36:18.056Z,116.09
2019-04-16T12:38:18.543Z,89.35
2019-04-16T12:40:20.055Z,138.01
2019-04-16T12:42:18.035Z,348.63
2019-04-16T12:44:18.175Z,109.19
2019-04-16T12:46:18.010Z,117.39
2019-04-16T12:48:18.024Z,103.57
2019-04-16T12:50:18.440Z,123.61
2019-04-16T12:52:17.828Z,118.31
2019-04-16T12:54:18.037Z,117.95
2019-04-16T12:56:18.042Z,105.19
2019-04-16T12:58:19.934Z,112.40
2019-04-16T13:00:18.072Z,126.10
2019-04-16T13:02:17.741Z,130.15
2019-04-16T13:04:17.704Z,136.52
2019-04-16T13:06:18.000Z,215.37
2019-04-16T13:08:18.005Z,132.89
2019-04-16T13:10:18.028Z,230.45
2019-04-16T13:12:18.038Z,314.00
2019-04-16T13:14:17.839Z,106.91
2019-04-16T13:16:17.752Z,154.73
2019-04-16T13:18:17.739Z,321.35
2019-04-16T13:20:17.979Z,125.66
2019-04-16T13:22:17.705Z,159.93
2019-04-16T13:24:18.104Z,174.16
2019-04-16T13:26:18.013Z,280.24
2019-04-16T13:28:20.417Z,288.57
2019-04-16T13:30:17.933Z,108.35
2019-04-16T13:32:17.951Z,97.59
2019-04-16T13:34:18.679Z,115.97
2019-04-16T13:36:18.097Z,111.07
2019-04-16T13:38:17.918Z,139.30
2019-04-16T13:40:18.000Z,319.74
2019-04-16T13:42:17.902Z,78.16
2019-04-16T13:44:17.985Z,187.18
2019-04-16T13:46:17.864Z,129.26
2019-04-16T13:48:18.152Z,138.76
2019-04-16T13:50:17.850Z,237.13
2019-04-16T13:52:20.436Z,178.70
2019-04-16T13:54:18.068Z,290.35
2019-04-16T13:56:18.659Z,174.72
2019-04-16T13:58:18.100Z,332.35
2019-04-16T14:00:17.914Z,291.66
2019-04-16T14:02:18.768Z,113.66
2019-04-16T14:04:18.136Z,221.86
2019-04-16T14:06:18.149Z,191.54
2019-04-16T14:08:17.901Z,233.12
2019-04-16T14:10:18.380Z,139.78
2019-04-16T14:12:24.513Z,205.22
2019-04-16T14:14:18.767Z,228.62
2019-04-16T14:16:18.011Z,202.76
2019-04-16T14:18:21.672Z,188.23
2019-04-16T14:20:18.436Z,174.57
2019-04-16T14:22:21.655Z,205.87
2019-04-16T14:24:18.156Z,123.03
2019-04-16T14:26:17.865Z,203.48
2019-04-16T14:28:18.208Z,167.45
2019-04-16T14:30:18.192Z,249.14
2019-04-16T14:32:18.103Z,338.44
2019-04-16T14:34:18.108Z,117.10
2019-04-16T14:36:18.233Z,97.84
2019-04-16T14:38:18.250Z,242.65
2019-04-16T14:40:18.431Z,195.72
2019-04-16T14:42:19.097Z,169.91
2019-04-16T14:44:17.972Z,104.96
2019-04-16T14:46:17.945Z,250.50
2019-04-16T14:48:18.232Z,293.09
2019-04-16T14:50:19.969Z,221.97
2019-04-16T14:52:18.226Z,292.54
2019-04-16T14:54:18.028Z,132.14
2019-04-16T14:56:17.982Z,214.31
2019-04-16T14:58:18.051Z,212.72
2019-04-16T15:00:20.878Z,276.81
2019-04-16T15:02:18.241Z,292.62
2019-04-16T15:04:18.087Z,223.85
2019-04-16T15:06:19.673Z,241.95
2019-04-16T15:08:18.109Z,114.87
2019-04-16T15:10:18.334Z,36.59
2019-04-16T15:12:18.345Z,244.05
2019-04-16T15:14:18.356Z,281.13
2019-04-16T15:16:22.261Z,4.61
2019-04-16T15:18:18.377Z,220.45
2019-04-16T15:20:18.595Z,293.46
2019-04-16T15:22:17.985Z,281.37
2019-04-16T15:24:18.184Z,211.85
2019-04-16T15:26:18.627Z,210.97
2019-04-16T15:28:18.020Z,265.16
2019-04-16T15:30:18.174Z,241.38
2019-04-16T15:32:18.595Z,197.17
2019-04-16T15:34:18.469Z,124.57
2019-04-16T15:36:19.507Z,140.57
2019-04-16T15:38:18.107Z,317.00
2019-04-16T15:40:18.509Z,286.85
2019-04-16T15:42:18.309Z,285.87
2019-04-16T15:44:22.546Z,250.79
2019-04-16T15:46:26.037Z,305.78
2019-04-16T15:48:18.977Z,286.55
2019-04-16T15:50:18.126Z,189.49
2019-04-16T15:52:18.266Z,219.42
2019-04-16T15:54:18.287Z,59.29
2019-04-16T15:56:18.705Z,258.77
2019-04-16T15:58:18.490Z,154.47
2019-04-16T16:00:18.730Z,126.57
2019-04-16T16:02:18.740Z,124.83
2019-04-16T16:04:18.513Z,136.74
2019-04-16T16:06:20.361Z,205.57
2019-04-16T16:08:18.575Z,122.96
2019-04-16T16:10:18.480Z,117.52
2019-04-16T16:12:22.030Z,151.65
2019-04-16T16:14:18.711Z,207.79
2019-04-16T16:16:18.955Z,262.56
2019-04-16T16:18:18.728Z,219.69
2019-04-16T16:20:18.638Z,145.64
2019-04-16T16:22:18.446Z,119.27
2019-04-16T16:24:18.867Z,308.25
2019-04-16T16:26:18.438Z,335.32
2019-04-16T16:28:18.792Z,248.95
2019-04-16T16:30:19.018Z,48.22
2019-04-16T16:32:18.827Z,235.80
2019-04-16T16:34:18.619Z,313.00
2019-04-16T16:36:18.349Z,250.64
2019-04-16T16:38:20.822Z,215.05
2019-04-16T16:40:18.457Z,326.41
2019-04-16T16:42:18.360Z,333.93
2019-04-16T16:44:18.788Z,266.81
2019-04-16T16:46:18.797Z,283.57
2019-04-16T16:48:21.817Z,256.87
2019-04-16T16:50:18.361Z,253.26
2019-04-16T16:52:18.748Z,205.70
2019-04-16T16:54:18.590Z,262.96
2019-04-16T16:56:21.109Z,315.00
2019-04-16T16:58:20.768Z,315.00
2019-04-16T17:00:20.753Z,315.00
2019-04-16T17:02:18.480Z,318.12
2019-04-16T17:04:18.720Z,293.25
2019-04-16T17:06:18.814Z,324.26
2019-04-16T17:08:18.634Z,182.02
2019-04-16T17:10:18.732Z,185.27
2019-04-16T17:12:18.647Z,194.41
2019-04-16T17:14:19.068Z,225.00
2019-04-16T17:16:18.565Z,227.39
2019-04-16T17:18:19.090Z,316.01
2019-04-16T17:20:18.649Z,232.83
2019-04-16T17:22:18.702Z,269.66
2019-04-16T17:24:18.645Z,218.43
2019-04-16T17:26:18.729Z,237.44
2019-04-16T17:28:18.742Z,352.17
2019-04-16T17:30:18.746Z,311.29
2019-04-16T17:32:18.559Z,238.30
2019-04-16T17:34:18.703Z,216.75
2019-04-16T17:36:18.733Z,225.00
2019-04-16T17:38:18.691Z,184.40
2019-04-16T17:40:18.814Z,180.00
2019-04-16T17:42:18.619Z,179.62
2019-04-16T17:44:18.519Z,315.00
2019-04-16T17:46:18.638Z,299.62
2019-04-16T17:48:21.003Z,220.23
2019-04-16T17:50:18.659Z,210.58
2019-04-16T17:52:18.773Z,346.37
2019-04-16T17:54:18.991Z,315.00
2019-04-16T17:56:18.805Z,315.00
2019-04-16T17:58:18.729Z,315.00
2019-04-16T18:00:19.625Z,315.00
2019-04-16T18:02:18.834Z,315.00
2019-04-16T18:04:18.744Z,285.20
2019-04-16T18:06:19.882Z,270.00
2019-04-16T18:08:18.676Z,270.00
2019-04-16T18:10:18.885Z,270.00
2019-04-16T18:12:19.867Z,270.00
2019-04-16T18:14:18.705Z,255.74
2019-04-16T18:16:19.758Z,225.00
2019-04-16T18:18:18.954Z,217.71
2019-04-16T18:20:18.741Z,180.00
2019-04-16T18:22:18.734Z,180.00
2019-04-16T18:24:18.870Z,180.00
2019-04-16T18:26:19.896Z,180.00
2019-04-16T18:28:18.661Z,180.00
2019-04-16T18:30:18.901Z,180.00
2019-04-16T18:32:21.095Z,180.00
2019-04-16T18:34:18.923Z,180.00
2019-04-16T18:36:18.734Z,180.00
2019-04-16T18:38:19.045Z,180.00
2019-04-16T18:40:19.847Z,180.00
2019-04-16T18:42:18.722Z,180.00
2019-04-16T18:44:18.793Z,184.33
2019-04-16T18:46:18.792Z,315.00
2019-04-16T18:48:18.950Z,315.00
2019-04-16T18:50:22.370Z,302.64
2019-04-16T18:52:19.032Z,225.00
2019-04-16T18:54:18.834Z,225.00
2019-04-16T18:56:18.981Z,286.18
2019-04-16T18:58:18.878Z,0.00
2019-04-16T19:00:18.877Z,0.00
2019-04-16T19:02:18.794Z,0.00
2019-04-16T19:04:18.687Z,0.00
2019-04-16T19:06:18.699Z,0.00
2019-04-16T19:08:19.021Z,0.00
2019-04-16T19:10:18.845Z,0.00
2019-04-16T19:12:18.772Z,0.00
2019-04-16T19:14:18.699Z,351.44
2019-04-16T19:16:18.765Z,315.00
2019-04-16T19:18:20.017Z,322.01
2019-04-16T19:20:19.760Z,0.00
2019-04-16T19:22:20.415Z,5.03
2019-04-16T19:24:19.025Z,180.00
2019-04-16T19:26:18.755Z,217.29
2019-04-16T19:28:20.205Z,225.00
2019-04-16T19:30:22.552Z,225.00
2019-04-16T19:32:18.966Z,225.00
2019-04-16T19:34:18.959Z,225.00
2019-04-16T19:36:19.785Z,225.00
2019-04-16T19:38:18.992Z,239.68
2019-04-16T19:40:19.545Z,315.00
2019-04-16T19:42:18.825Z,315.00
2019-04-16T19:44:18.903Z,315.00
2019-04-16T19:46:19.023Z,315.00
2019-04-16T19:48:34.266Z,315.00
2019-04-16T19:50:19.071Z,315.00
2019-04-16T19:52:18.874Z,315.00
2019-04-16T19:54:18.785Z,315.00
2019-04-16T19:56:19.593Z,315.00
2019-04-16T19:58:18.804Z,315.00
2019-04-16T20:00:23.008Z,315.00
2019-04-16T20:02:18.979Z,315.00
2019-04-16T20:04:19.056Z,315.00
2019-04-16T20:06:18.786Z,315.00
2019-04-16T20:08:18.873Z,315.00
2019-04-16T20:10:18.832Z,315.00
2019-04-16T20:12:18.993Z,315.00
2019-04-16T20:14:19.105Z,315.00
2019-04-16T20:16:19.015Z,315.00
2019-04-16T20:18:18.786Z,315.00
2019-04-16T20:20:18.831Z,315.00
2019-04-16T20:22:18.795Z,315.00
2019-04-16T20:24:18.856Z,315.00
2019-04-16T20:26:19.083Z,315.00
2019-04-16T20:28:18.887Z,315.00
2019-04-16T20:30:23.246Z,315.00
2019-04-16T20:32:18.618Z,315.00
2019-04-16T20:34:18.723Z,315.00
2019-04-16T20:36:22.455Z,315.00
2019-04-16T20:38:18.409Z,315.00
2019-04-16T20:40:18.793Z,315.00
2019-04-16T20:42:18.631Z,315.00
2019-04-16T20:44:18.462Z,315.00
2019-04-16T20:46:18.887Z,315.00
2019-04-16T20:48:19.512Z,315.00
2019-04-16T20:50:20.887Z,315.00
2019-04-16T20:52:18.540Z,315.00
2019-04-16T20:54:18.614Z,315.00
2019-04-16T20:56:20.678Z,315.00
2019-04-16T20:58:18.448Z,315.00
2019-04-16T21:00:18.395Z,315.00
2019-04-16T21:02:18.775Z,315.00
2019-04-16T21:04:18.797Z,315.00
2019-04-16T21:06:19.024Z,315.00
2019-04-16T21:08:24.382Z,315.00
2019-04-16T21:10:18.617Z,278.63
2019-04-16T21:12:18.735Z,225.00
2019-04-16T21:14:21.484Z,225.00
2019-04-16T21:16:18.402Z,225.00
2019-04-16T21:18:18.462Z,305.66
2019-04-16T21:20:20.271Z,315.00
2019-04-16T21:22:18.482Z,309.26
2019-04-16T21:24:18.615Z,294.01
2019-04-16T21:26:20.006Z,192.62
2019-04-16T21:28:19.146Z,208.63
2019-04-16T21:30:18.636Z,221.97
2019-04-16T21:32:18.408Z,133.79
2019-04-16T21:34:24.054Z,257.82
2019-04-16T21:36:18.770Z,261.17
2019-04-16T21:38:18.532Z,252.17
2019-04-16T21:40:23.180Z,253.67
2019-04-16T21:42:18.708Z,345.90
2019-04-16T21:44:18.722Z,39.68
2019-04-16T21:46:20.553Z,240.31
2019-04-16T21:48:18.698Z,31.66
2019-04-16T21:50:18.684Z,80.20
2019-04-16T21:52:18.766Z,264.37
2019-04-16T21:54:18.985Z,284.55
2019-04-16T21:56:18.742Z,308.78
2019-04-16T21:58:18.800Z,330.70
2019-04-16T22:00:18.820Z,311.93
2019-04-16T22:02:18.783Z,235.21
2019-04-16T22:04:18.733Z,311.51
2019-04-16T22:06:20.218Z,319.61
2019-04-16T22:08:18.859Z,261.36
2019-04-16T22:10:18.866Z,230.21
2019-04-16T22:12:19.091Z,189.60
2019-04-16T22:14:22.015Z,182.63
2019-04-16T22:16:18.438Z,205.41
2019-04-16T22:18:18.757Z,307.30
2019-04-16T22:20:18.771Z,304.11
2019-04-16T22:22:18.846Z,181.16
2019-04-16T22:24:19.752Z,334.81
2019-04-16T22:26:18.756Z,198.86
2019-04-16T22:28:18.979Z,271.55
2019-04-16T22:30:19.407Z,224.74
2019-04-16T22:32:18.822Z,87.81
2019-04-16T22:34:18.831Z,343.76
2019-04-16T22:36:18.486Z,286.72
2019-04-16T22:38:18.734Z,288.02
2019-04-16T22:40:22.584Z,305.75
2019-04-16T22:42:18.959Z,315.00
2019-04-16T22:44:19.382Z,315.00
2019-04-16T22:46:18.523Z,315.00
2019-04-16T22:48:18.555Z,315.00
2019-04-16T22:50:18.598Z,315.00
2019-04-16T22:52:18.606Z,315.00
2019-04-16T22:54:20.873Z,315.00
2019-04-16T22:56:18.592Z,315.00
2019-04-16T22:58:18.648Z,315.00
2019-04-16T23:00:18.563Z,315.00
2019-04-16T23:02:18.791Z,231.48
2019-04-16T23:04:18.788Z,226.78
2019-04-16T23:06:18.516Z,265.94
2019-04-16T23:08:18.583Z,192.09
2019-04-16T23:10:20.979Z,227.59
2019-04-16T23:12:18.672Z,180.00
2019-04-16T23:14:18.867Z,180.00
2019-04-16T23:16:18.879Z,180.00
2019-04-16T23:18:18.758Z,180.00
2019-04-16T23:20:29.283Z,181.76
2019-04-16T23:22:18.677Z,331.35
2019-04-16T23:24:23.187Z,225.00
2019-04-16T23:26:18.706Z,225.00
2019-04-16T23:28:18.838Z,225.00
2019-04-16T23:30:19.232Z,225.00
2019-04-16T23:32:19.148Z,225.00
2019-04-16T23:34:18.754Z,225.00
2019-04-16T23:36:18.889Z,225.00
2019-04-16T23:38:18.979Z,225.00
2019-04-16T23:40:18.900Z,225.00
2019-04-16T23:42:19.687Z,225.00
2019-04-16T23:44:18.918Z,225.00
2019-04-16T23:46:18.824Z,225.00
2019-04-16T23:48:18.835Z,225.00
2019-04-16T23:50:18.964Z,225.00
2019-04-16T23:52:18.971Z,225.00
2019-04-16T23:54:19.074Z,225.00
2019-04-16T23:56:20.607Z,225.00
2019-04-16T23:58:18.801Z,225.00
